sensor_id;sensor_type;location;lat;lon;timestamp;pressure;altitude;pressure_sealevel;temperature;humidity
19208;BME280;9737;59.466;18.036;2023-04-27T00:02:00;96861.66;;;2.07;54.65
19208;BME280;9737;59.466;18.036;2023-04-27T00:04:28;96836.00;;;2.01;54.56
19208;BME280;9737;59.466;18.036;2023-04-27T00:06:56;96808.75;;;1.94;54.45
19208;BME280;9737;59.466;18.036;2023-04-27T00:09:24;96800.34;;;1.91;54.56
19208;BME280;9737;59.466;18.036;2023-04-27T00:11:52;96768.00;;;1.82;54.47
19208;BME280;9737;59.466;18.036;2023-04-27T00:14:20;96750.13;;;1.77;54.38
19208;BME280;9737;59.466;18.036;2023-04-27T00:16:49;96764.56;;;1.81;54.58
19208;BME280;9737;59.466;18.036;2023-04-27T00:19:17;96759.47;;;1.80;54.55
19208;BME280;9737;59.466;18.036;2023-04-27T00:21:44;96710.88;;;1.68;54.52
19208;BME280;9737;59.466;18.036;2023-04-27T00:24:12;96689.53;;;1.63;54.31
19208;BME280;9737;59.466;18.036;2023-04-27T00:26:40;96666.88;;;1.53;54.40
19208;BME280;9737;59.466;18.036;2023-04-27T00:29:08;96670.81;;;1.58;54.55
19208;BME280;9737;59.466;18.036;2023-04-27T00:31:36;96674.41;;;1.57;54.49
19208;BME280;9737;59.466;18.036;2023-04-27T00:34:06;96653.91;;;1.52;54.31
19208;BME280;9737;59.466;18.036;2023-04-27T00:36:33;96669.19;;;1.57;54.51
19208;BME280;9737;59.466;18.036;2023-04-27T00:39:02;96711.69;;;1.68;54.44
19208;BME280;9737;59.466;18.036;2023-04-27T00:41:31;96709.50;;;1.64;54.85
19208;BME280;9737;59.466;18.036;2023-04-27T00:43:59;96768.00;;;1.82;54.61
19208;BME280;9737;59.466;18.036;2023-04-27T00:46:27;96802.16;;;1.90;54.63
19208;BME280;9737;59.466;18.036;2023-04-27T00:48:56;96846.50;;;2.01;54.65
19208;BME280;9737;59.466;18.036;2023-04-27T00:51:26;96885.31;;;2.15;54.51
19208;BME280;9737;59.466;18.036;2023-04-27T00:53:57;96898.28;;;2.17;54.88
19208;BME280;9737;59.466;18.036;2023-04-27T00:56:25;96918.69;;;2.23;54.77
19208;BME280;9737;59.466;18.036;2023-04-27T00:58:53;96939.22;;;2.28;54.72
19208;BME280;9737;59.466;18.036;2023-04-27T01:01:20;96949.41;;;2.31;54.69
19208;BME280;9737;59.466;18.036;2023-04-27T01:03:49;96941.00;;;2.27;54.98
19208;BME280;9737;59.466;18.036;2023-04-27T01:06:17;96953.69;;;2.32;54.88
19208;BME280;9737;59.466;18.036;2023-04-27T01:08:46;96970.78;;;2.36;55.38
19208;BME280;9737;59.466;18.036;2023-04-27T01:11:14;96962.25;;;2.34;54.82
19208;BME280;9737;59.466;18.036;2023-04-27T01:13:42;96975.06;;;2.37;54.98
19208;BME280;9737;59.466;18.036;2023-04-27T01:16:09;96941.00;;;2.27;55.16
19208;BME280;9737;59.466;18.036;2023-04-27T01:18:37;96933.28;;;2.26;55.09
19208;BME280;9737;59.466;18.036;2023-04-27T01:21:06;96899.78;;;2.20;54.99
19208;BME280;9737;59.466;18.036;2023-04-27T01:23:35;96872.66;;;2.11;55.21
19208;BME280;9737;59.466;18.036;2023-04-27T01:26:03;96841.25;;;2.01;55.05
19208;BME280;9737;59.466;18.036;2023-04-27T01:28:31;96814.66;;;1.96;55.20
19208;BME280;9737;59.466;18.036;2023-04-27T01:30:59;96807.91;;;1.94;55.01
19208;BME280;9737;59.466;18.036;2023-04-27T01:33:26;96787.56;;;1.88;54.81
19208;BME280;9737;59.466;18.036;2023-04-27T01:35:54;96777.38;;;1.84;55.10
19208;BME280;9737;59.466;18.036;2023-04-27T01:38:22;96733.00;;;1.73;54.88
19208;BME280;9737;59.466;18.036;2023-04-27T01:40:52;96681.00;;;1.61;54.90
19208;BME280;9737;59.466;18.036;2023-04-27T01:43:20;96664.91;;;1.55;55.14
19208;BME280;9737;59.466;18.036;2023-04-27T01:45:48;96604.50;;;1.39;55.09
19208;BME280;9737;59.466;18.036;2023-04-27T01:48:16;96538.09;;;1.22;55.12
19208;BME280;9737;59.466;18.036;2023-04-27T01:50:44;96499.88;;;1.12;55.08
19208;BME280;9737;59.466;18.036;2023-04-27T01:53:12;96474.31;;;1.06;55.40
19208;BME280;9737;59.466;18.036;2023-04-27T01:55:40;96466.75;;;1.03;54.96
19208;BME280;9737;59.466;18.036;2023-04-27T01:58:09;96430.53;;;0.90;55.16
19208;BME280;9737;59.466;18.036;2023-04-27T02:00:37;96396.13;;;0.85;55.14
19208;BME280;9737;59.466;18.036;2023-04-27T02:03:05;96364.84;;;0.75;55.00
19208;BME280;9737;59.466;18.036;2023-04-27T02:05:33;96359.09;;;0.72;54.82
19208;BME280;9737;59.466;18.036;2023-04-27T02:08:01;96378.28;;;0.80;55.23
19208;BME280;9737;59.466;18.036;2023-04-27T02:10:29;96353.03;;;0.71;55.34
19208;BME280;9737;59.466;18.036;2023-04-27T02:12:57;96336.97;;;0.66;55.20
19208;BME280;9737;59.466;18.036;2023-04-27T02:15:26;96325.56;;;0.67;55.17
19208;BME280;9737;59.466;18.036;2023-04-27T02:17:54;96338.47;;;0.69;54.98
19208;BME280;9737;59.466;18.036;2023-04-27T02:20:22;96323.25;;;0.64;54.96
19208;BME280;9737;59.466;18.036;2023-04-27T02:22:51;96318.97;;;0.63;54.90
19208;BME280;9737;59.466;18.036;2023-04-27T02:25:19;96294.25;;;0.57;54.87
19208;BME280;9737;59.466;18.036;2023-04-27T02:27:47;96308.81;;;0.60;55.28
19208;BME280;9737;59.466;18.036;2023-04-27T02:30:15;96279.97;;;0.52;55.14
19208;BME280;9737;59.466;18.036;2023-04-27T02:32:45;96269.84;;;0.49;55.31
19208;BME280;9737;59.466;18.036;2023-04-27T02:35:13;96262.66;;;0.51;55.23
19208;BME280;9737;59.466;18.036;2023-04-27T02:37:41;96239.06;;;0.43;55.09
19208;BME280;9737;59.466;18.036;2023-04-27T02:40:09;96255.44;;;0.45;55.30
19208;BME280;9737;59.466;18.036;2023-04-27T02:42:37;96267.06;;;0.50;55.07
19208;BME280;9737;59.466;18.036;2023-04-27T02:45:06;96266.25;;;0.50;55.55
19208;BME280;9737;59.466;18.036;2023-04-27T02:47:34;96237.44;;;0.42;55.49
19208;BME280;9737;59.466;18.036;2023-04-27T02:50:04;96242.66;;;0.42;55.52
19208;BME280;9737;59.466;18.036;2023-04-27T02:52:33;96242.66;;;0.42;55.72
19208;BME280;9737;59.466;18.036;2023-04-27T02:55:00;96263.63;;;0.50;55.62
19208;BME280;9737;59.466;18.036;2023-04-27T02:57:28;96232.66;;;0.37;55.71
19208;BME280;9737;59.466;18.036;2023-04-27T02:59:57;96194.22;;;0.29;55.65
19208;BME280;9737;59.466;18.036;2023-04-27T03:02:25;96200.13;;;0.32;55.53
19208;BME280;9737;59.466;18.036;2023-04-27T03:04:52;96161.97;;;0.21;55.35
19208;BME280;9737;59.466;18.036;2023-04-27T03:07:22;96088.88;;;0.03;55.69
19208;BME280;9737;59.466;18.036;2023-04-27T03:09:50;96086.59;;;0.00;55.37
19208;BME280;9737;59.466;18.036;2023-04-27T03:12:18;96066.94;;;-0.04;55.16
19208;BME280;9737;59.466;18.036;2023-04-27T03:14:46;96048.47;;;-0.11;55.47
19208;BME280;9737;59.466;18.036;2023-04-27T03:17:14;96038.84;;;-0.10;55.52
19208;BME280;9737;59.466;18.036;2023-04-27T03:19:42;96022.16;;;-0.17;55.83
19208;BME280;9737;59.466;18.036;2023-04-27T03:22:09;96003.50;;;-0.22;55.84
19208;BME280;9737;59.466;18.036;2023-04-27T03:24:39;96040.78;;;-0.12;55.43
19208;BME280;9737;59.466;18.036;2023-04-27T03:27:06;95969.09;;;-0.44;55.44
19208;BME280;9737;59.466;18.036;2023-04-27T03:29:34;95998.28;;;-0.22;55.33
19208;BME280;9737;59.466;18.036;2023-04-27T03:32:02;96022.97;;;-0.17;55.69
19208;BME280;9737;59.466;18.036;2023-04-27T03:34:30;96041.59;;;-0.12;56.09
19208;BME280;9737;59.466;18.036;2023-04-27T03:36:58;96052.88;;;-0.11;55.58
19208;BME280;9737;59.466;18.036;2023-04-27T03:39:26;96086.59;;;0.00;56.21
19208;BME280;9737;59.466;18.036;2023-04-27T03:41:55;96123.88;;;0.10;55.88
19208;BME280;9737;59.466;18.036;2023-04-27T03:44:24;96165.06;;;0.16;56.11
19208;BME280;9737;59.466;18.036;2023-04-27T03:46:52;96216.31;;;0.35;55.69
19208;BME280;9737;59.466;18.036;2023-04-27T03:49:20;96262.97;;;0.48;56.15
19208;BME280;9737;59.466;18.036;2023-04-27T03:51:49;96297.00;;;0.56;56.34
19208;BME280;9737;59.466;18.036;2023-04-27T03:54:17;96369.09;;;0.76;56.00
19208;BME280;9737;59.466;18.036;2023-04-27T03:56:45;96422.84;;;0.88;56.02
19208;BME280;9737;59.466;18.036;2023-04-27T03:59:14;96446.44;;;0.97;56.53
19208;BME280;9737;59.466;18.036;2023-04-27T04:01:42;96473.66;;;1.04;56.15
19208;BME280;9737;59.466;18.036;2023-04-27T04:04:10;96533.03;;;1.21;56.32
19208;BME280;9737;59.466;18.036;2023-04-27T04:06:38;96573.69;;;1.33;56.61
19208;BME280;9737;59.466;18.036;2023-04-27T04:09:06;96635.06;;;1.48;56.38
19208;BME280;9737;59.466;18.036;2023-04-27T04:11:34;96702.34;;;1.66;56.80
19208;BME280;9737;59.466;18.036;2023-04-27T04:14:02;96762.09;;;1.80;56.53
19208;BME280;9737;59.466;18.036;2023-04-27T04:16:32;96795.25;;;1.89;56.65
19208;BME280;9737;59.466;18.036;2023-04-27T04:19:00;96815.63;;;1.95;56.77
19208;BME280;9737;59.466;18.036;2023-04-27T04:21:28;96810.41;;;1.95;56.96
19208;BME280;9737;59.466;18.036;2023-04-27T04:23:57;96862.31;;;2.09;56.85
19208;BME280;9737;59.466;18.036;2023-04-27T04:26:25;96879.72;;;2.10;57.15
19208;BME280;9737;59.466;18.036;2023-04-27T04:28:53;96896.34;;;2.19;57.14
19208;BME280;9737;59.466;18.036;2023-04-27T04:31:21;96952.03;;;2.31;57.32
19208;BME280;9737;59.466;18.036;2023-04-27T04:33:50;96993.13;;;2.40;57.40
19208;BME280;9737;59.466;18.036;2023-04-27T04:36:18;97017.66;;;2.48;57.22
19208;BME280;9737;59.466;18.036;2023-04-27T04:38:46;97040.81;;;2.53;57.47
19208;BME280;9737;59.466;18.036;2023-04-27T04:41:14;97059.56;;;2.58;57.50
19208;BME280;9737;59.466;18.036;2023-04-27T04:43:42;97096.28;;;2.68;57.39
19208;BME280;9737;59.466;18.036;2023-04-27T04:46:09;97114.22;;;2.72;57.39
19208;BME280;9737;59.466;18.036;2023-04-27T04:48:37;97158.63;;;2.84;57.51
19208;BME280;9737;59.466;18.036;2023-04-27T04:51:06;97167.75;;;2.89;57.63
19208;BME280;9737;59.466;18.036;2023-04-27T04:53:34;97201.16;;;2.97;57.36
19208;BME280;9737;59.466;18.036;2023-04-27T04:56:09;97246.28;;;3.10;57.67
19208;BME280;9737;59.466;18.036;2023-04-27T04:58:37;97274.56;;;3.16;57.76
19208;BME280;9737;59.466;18.036;2023-04-27T05:01:05;97339.50;;;3.33;57.98
19208;BME280;9737;59.466;18.036;2023-04-27T05:03:34;97376.25;;;3.43;57.80
19208;BME280;9737;59.466;18.036;2023-04-27T05:06:02;97442.03;;;3.61;57.95
19208;BME280;9737;59.466;18.036;2023-04-27T05:08:31;97538.03;;;3.84;58.13
19208;BME280;9737;59.466;18.036;2023-04-27T05:10:59;97605.38;;;4.04;58.05
19208;BME280;9737;59.466;18.036;2023-04-27T05:13:27;97688.56;;;4.25;58.21
19208;BME280;9737;59.466;18.036;2023-04-27T05:15:55;97706.84;;;4.17;57.92
19208;BME280;9737;59.466;18.036;2023-04-27T05:18:23;97774.41;;;4.45;58.64
19208;BME280;9737;59.466;18.036;2023-04-27T05:20:51;97810.44;;;4.54;58.39
19208;BME280;9737;59.466;18.036;2023-04-27T05:23:18;97879.84;;;4.73;58.33
19208;BME280;9737;59.466;18.036;2023-04-27T05:25:48;97912.41;;;4.81;58.82
19208;BME280;9737;59.466;18.036;2023-04-27T05:28:16;97916.59;;;4.84;58.42
19208;BME280;9737;59.466;18.036;2023-04-27T05:30:44;97989.53;;;5.03;58.37
19208;BME280;9737;59.466;18.036;2023-04-27T05:33:12;98078.72;;;5.26;58.84
19208;BME280;9737;59.466;18.036;2023-04-27T05:35:40;98185.47;;;5.51;58.54
19208;BME280;9737;59.466;18.036;2023-04-27T05:38:07;98276.41;;;5.76;58.89
19208;BME280;9737;59.466;18.036;2023-04-27T05:40:36;98398.72;;;6.06;59.32
19208;BME280;9737;59.466;18.036;2023-04-27T05:43:05;98537.97;;;6.44;59.25
19208;BME280;9737;59.466;18.036;2023-04-27T05:45:38;98675.19;;;6.76;59.15
19208;BME280;9737;59.466;18.036;2023-04-27T05:48:06;98785.38;;;7.06;59.54
19208;BME280;9737;59.466;18.036;2023-04-27T05:50:34;98850.78;;;7.25;59.30
19208;BME280;9737;59.466;18.036;2023-04-27T05:53:01;98799.19;;;7.09;59.60
19208;BME280;9737;59.466;18.036;2023-04-27T05:55:31;98830.13;;;7.19;59.22
19208;BME280;9737;59.466;18.036;2023-04-27T05:58:00;98978.75;;;7.54;59.60
19208;BME280;9737;59.466;18.036;2023-04-27T06:00:35;99075.31;;;7.81;59.64
19208;BME280;9737;59.466;18.036;2023-04-27T06:03:04;99076.25;;;7.80;59.84
19208;BME280;9737;59.466;18.036;2023-04-27T06:05:32;99163.53;;;8.02;60.04
19208;BME280;9737;59.466;18.036;2023-04-27T06:08:01;99189.25;;;8.11;60.22
19208;BME280;9737;59.466;18.036;2023-04-27T06:10:29;99286.44;;;8.31;59.99
19208;BME280;9737;59.466;18.036;2023-04-27T06:12:56;99240.50;;;8.21;59.71
19208;BME280;9737;59.466;18.036;2023-04-27T06:15:24;99291.59;;;8.33;59.87
19208;BME280;9737;59.466;18.036;2023-04-27T06:17:54;99184.44;;;8.05;59.70
19208;BME280;9737;59.466;18.036;2023-04-27T06:20:22;99195.63;;;8.08;60.16
19208;BME280;9737;59.466;18.036;2023-04-27T06:22:50;99264.06;;;8.24;60.27
19208;BME280;9737;59.466;18.036;2023-04-27T06:25:17;99352.44;;;8.46;59.81
19208;BME280;9737;59.466;18.036;2023-04-27T06:27:45;99489.44;;;8.77;60.06
19208;BME280;9737;59.466;18.036;2023-04-27T06:30:13;99600.88;;;9.09;60.59
19208;BME280;9737;59.466;18.036;2023-04-27T06:32:41;99561.97;;;8.98;60.24
19208;BME280;9737;59.466;18.036;2023-04-27T06:35:11;99582.69;;;9.05;60.08
19208;BME280;9737;59.466;18.036;2023-04-27T06:37:39;99624.13;;;9.17;60.40
19208;BME280;9737;59.466;18.036;2023-04-27T06:40:07;99703.94;;;9.36;60.11
19208;BME280;9737;59.466;18.036;2023-04-27T06:42:35;99756.88;;;9.49;60.75
19208;BME280;9737;59.466;18.036;2023-04-27T06:45:04;99619.19;;;9.12;60.29
19208;BME280;9737;59.466;18.036;2023-04-27T06:47:33;99569.19;;;8.96;60.39
19208;BME280;9737;59.466;18.036;2023-04-27T06:50:01;99654.63;;;9.22;60.30
19208;BME280;9737;59.466;18.036;2023-04-27T06:52:32;99718.78;;;9.39;60.88
19208;BME280;9737;59.466;18.036;2023-04-27T06:54:59;99742.28;;;9.43;60.46
19208;BME280;9737;59.466;18.036;2023-04-27T06:57:27;99677.31;;;9.26;60.11
19208;BME280;9737;59.466;18.036;2023-04-27T06:59:55;99741.44;;;9.43;60.56
19208;BME280;9737;59.466;18.036;2023-04-27T07:02:23;99558.59;;;8.96;60.10
19208;BME280;9737;59.466;18.036;2023-04-27T07:04:51;99583.78;;;9.02;60.32
19208;BME280;9737;59.466;18.036;2023-04-27T07:07:19;99763.28;;;9.46;60.28
19208;BME280;9737;59.466;18.036;2023-04-27T07:09:48;99934.06;;;9.91;60.70
19208;BME280;9737;59.466;18.036;2023-04-27T07:12:16;99978.38;;;10.02;60.90
19208;BME280;9737;59.466;18.036;2023-04-27T07:14:44;99938.41;;;9.92;60.75
19208;BME280;9737;59.466;18.036;2023-04-27T07:17:12;100007.84;;;10.10;60.40
19208;BME280;9737;59.466;18.036;2023-04-27T07:19:40;100150.50;;;10.45;60.56
19208;BME280;9737;59.466;18.036;2023-04-27T07:22:08;100310.00;;;10.80;60.67
19208;BME280;9737;59.466;18.036;2023-04-27T07:24:37;100502.03;;;11.33;60.98
19208;BME280;9737;59.466;18.036;2023-04-27T07:27:06;100729.59;;;11.89;60.72
19208;BME280;9737;59.466;18.036;2023-04-27T07:29:34;100727.16;;;11.86;60.97
19208;BME280;9737;59.466;18.036;2023-04-27T07:32:04;100645.16;;;11.66;60.69
19208;BME280;9737;59.466;18.036;2023-04-27T07:34:33;100460.47;;;11.19;60.70
19208;BME280;9737;59.466;18.036;2023-04-27T07:37:17;100517.06;;;11.34;60.97
19208;BME280;9737;59.466;18.036;2023-04-27T07:39:47;100446.44;;;11.17;61.03
19208;BME280;9737;59.466;18.036;2023-04-27T07:42:17;100533.66;;;11.37;60.89
19208;BME280;9737;59.466;18.036;2023-04-27T07:44:44;100670.47;;;11.71;60.83
19208;BME280;9737;59.466;18.036;2023-04-27T07:47:12;100845.81;;;12.16;60.66
19208;BME280;9737;59.466;18.036;2023-04-27T07:49:40;100875.66;;;12.21;60.91
19208;BME280;9737;59.466;18.036;2023-04-27T07:52:11;100640.91;;;11.63;60.65
19208;BME280;9737;59.466;18.036;2023-04-27T07:54:39;100617.28;;;11.59;60.77
19208;BME280;9737;59.466;18.036;2023-04-27T07:57:08;100551.09;;;11.41;60.97
19208;BME280;9737;59.466;18.036;2023-04-27T07:59:38;100601.72;;;11.53;61.02
19208;BME280;9737;59.466;18.036;2023-04-27T08:02:06;100699.06;;;11.69;60.62
19208;BME280;9737;59.466;18.036;2023-04-27T08:04:45;100649.50;;;11.67;60.59
19208;BME280;9737;59.466;18.036;2023-04-27T08:07:14;100674.00;;;11.72;60.83
19208;BME280;9737;59.466;18.036;2023-04-27T08:09:43;100722.75;;;11.85;60.44
19208;BME280;9737;59.466;18.036;2023-04-27T08:12:11;100755.06;;;11.93;60.53
19208;BME280;9737;59.466;18.036;2023-04-27T08:14:40;100878.94;;;12.24;60.66
19208;BME280;9737;59.466;18.036;2023-04-27T08:17:08;100962.84;;;12.44;60.61
19208;BME280;9737;59.466;18.036;2023-04-27T08:19:37;101097.47;;;12.77;60.80
19208;BME280;9737;59.466;18.036;2023-04-27T08:22:05;101396.50;;;13.53;60.70
19208;BME280;9737;59.466;18.036;2023-04-27T08:24:34;101615.72;;;14.04;60.81
19208;BME280;9737;59.466;18.036;2023-04-27T08:27:04;101605.25;;;14.01;60.84
19208;BME280;9737;59.466;18.036;2023-04-27T08:29:32;101543.81;;;13.86;60.95
19208;BME280;9737;59.466;18.036;2023-04-27T08:32:04;101520.19;;;13.80;60.71
19208;BME280;9737;59.466;18.036;2023-04-27T08:34:32;101928.09;;;14.81;60.86
19208;BME280;9737;59.466;18.036;2023-04-27T08:37:00;102092.47;;;15.19;60.69
19208;BME280;9737;59.466;18.036;2023-04-27T08:39:30;102091.72;;;15.17;60.77
19208;BME280;9737;59.466;18.036;2023-04-27T08:41:58;101911.66;;;14.73;60.82
19208;BME280;9737;59.466;18.036;2023-04-27T08:44:26;101785.97;;;14.44;60.57
19208;BME280;9737;59.466;18.036;2023-04-27T08:46:53;101637.78;;;14.07;60.33
19208;BME280;9737;59.466;18.036;2023-04-27T08:49:23;101346.06;;;13.36;60.41
19208;BME280;9737;59.466;18.036;2023-04-27T08:51:50;101138.53;;;12.87;60.44
19208;BME280;9737;59.466;18.036;2023-04-27T08:54:19;101308.16;;;13.30;60.43
19208;BME280;9737;59.466;18.036;2023-04-27T08:56:47;101179.63;;;12.97;60.25
19208;BME280;9737;59.466;18.036;2023-04-27T08:59:15;100845.28;;;12.10;60.27
19208;BME280;9737;59.466;18.036;2023-04-27T09:01:43;100563.44;;;11.42;59.75
19208;BME280;9737;59.466;18.036;2023-04-27T09:04:13;100378.41;;;11.02;59.72
19208;BME280;9737;59.466;18.036;2023-04-27T09:06:43;100362.88;;;10.96;59.78
19208;BME280;9737;59.466;18.036;2023-04-27T09:09:20;100843.03;;;12.17;59.75
19208;BME280;9737;59.466;18.036;2023-04-27T09:11:49;101441.09;;;13.65;60.07
19208;BME280;9737;59.466;18.036;2023-04-27T09:14:18;101351.81;;;13.42;59.85
19208;BME280;9737;59.466;18.036;2023-04-27T09:16:52;101016.38;;;12.54;59.77
19208;BME280;9737;59.466;18.036;2023-04-27T09:19:25;100474.50;;;11.21;59.73
19208;BME280;9737;59.466;18.036;2023-04-27T09:22:04;100201.88;;;10.57;59.71
19208;BME280;9737;59.466;18.036;2023-04-27T09:24:33;99935.16;;;9.89;59.02
19208;BME280;9737;59.466;18.036;2023-04-27T09:27:01;99849.06;;;9.69;59.01
19208;BME280;9737;59.466;18.036;2023-04-27T09:29:34;99858.59;;;9.72;59.06
19208;BME280;9737;59.466;18.036;2023-04-27T09:32:13;99858.59;;;9.72;58.95
19208;BME280;9737;59.466;18.036;2023-04-27T09:34:43;99878.50;;;9.77;58.70
19208;BME280;9737;59.466;18.036;2023-04-27T09:37:13;100017.50;;;10.11;58.90
19208;BME280;9737;59.466;18.036;2023-04-27T09:39:41;100348.63;;;10.97;58.98
19208;BME280;9737;59.466;18.036;2023-04-27T09:42:10;101110.88;;;12.88;59.13
19208;BME280;9737;59.466;18.036;2023-04-27T09:44:38;101517.09;;;13.86;59.38
19208;BME280;9737;59.466;18.036;2023-04-27T09:47:06;101877.69;;;14.73;59.13
19208;BME280;9737;59.466;18.036;2023-04-27T09:49:35;102356.00;;;15.90;59.40
19208;BME280;9737;59.466;18.036;2023-04-27T09:52:04;102331.53;;;15.82;59.61
19208;BME280;9737;59.466;18.036;2023-04-27T09:54:35;101840.22;;;14.61;59.59
19208;BME280;9737;59.466;18.036;2023-04-27T09:57:15;101433.16;;;13.63;59.16
19208;BME280;9737;59.466;18.036;2023-04-27T10:00:08;101290.38;;;13.29;59.00
19208;BME280;9737;59.466;18.036;2023-04-27T10:03:01;101124.22;;;12.88;58.95
19208;BME280;9737;59.466;18.036;2023-04-27T10:05:44;100786.97;;;12.06;58.81
19208;BME280;9737;59.466;18.036;2023-04-27T10:08:16;100562.97;;;11.48;58.47
19208;BME280;9737;59.466;18.036;2023-04-27T10:10:49;100393.91;;;11.08;58.92
19208;BME280;9737;59.466;18.036;2023-04-27T10:13:21;100167.66;;;10.52;58.73
19208;BME280;9737;59.466;18.036;2023-04-27T10:15:49;100007.22;;;10.07;58.33
19208;BME280;9737;59.466;18.036;2023-04-27T10:18:25;99977.41;;;10.03;58.25
19208;BME280;9737;59.466;18.036;2023-04-27T10:20:54;99753.50;;;9.47;57.89
19208;BME280;9737;59.466;18.036;2023-04-27T10:23:22;99652.81;;;9.23;58.27
19208;BME280;9737;59.466;18.036;2023-04-27T10:25:52;99558.59;;;8.96;58.02
19208;BME280;9737;59.466;18.036;2023-04-27T10:28:21;99460.66;;;8.73;57.99
19208;BME280;9737;59.466;18.036;2023-04-27T10:30:49;99430.16;;;8.67;57.65
19208;BME280;9737;59.466;18.036;2023-04-27T10:33:18;99432.09;;;8.65;57.74
19208;BME280;9737;59.466;18.036;2023-04-27T10:35:56;99499.53;;;8.83;57.69
19208;BME280;9737;59.466;18.036;2023-04-27T10:38:27;99450.91;;;8.73;57.39
19208;BME280;9737;59.466;18.036;2023-04-27T10:40:59;99547.97;;;8.96;57.66
19208;BME280;9737;59.466;18.036;2023-04-27T10:43:29;100116.06;;;10.43;57.66
19208;BME280;9737;59.466;18.036;2023-04-27T10:46:06;101077.13;;;12.87;57.67
19208;BME280;9737;59.466;18.036;2023-04-27T10:48:34;102048.44;;;15.24;57.95
19208;BME280;9737;59.466;18.036;2023-04-27T10:51:03;102744.31;;;16.90;58.32
19208;BME280;9737;59.466;18.036;2023-04-27T10:53:35;103503.28;;;18.67;58.37
19208;BME280;9737;59.466;18.036;2023-04-27T10:56:04;103717.91;;;19.17;58.45
19208;BME280;9737;59.466;18.036;2023-04-27T10:58:33;103398.81;;;18.41;58.58
19208;BME280;9737;59.466;18.036;2023-04-27T11:01:22;102954.00;;;17.33;58.50
19208;BME280;9737;59.466;18.036;2023-04-27T11:03:54;102759.97;;;16.84;58.28
19208;BME280;9737;59.466;18.036;2023-04-27T11:06:22;103032.53;;;17.54;58.31
19208;BME280;9737;59.466;18.036;2023-04-27T11:08:50;102789.72;;;16.95;58.32
19208;BME280;9737;59.466;18.036;2023-04-27T11:11:19;102347.97;;;15.90;58.14
19208;BME280;9737;59.466;18.036;2023-04-27T11:13:48;101825.75;;;14.63;58.19
19208;BME280;9737;59.466;18.036;2023-04-27T11:16:18;102076.72;;;15.28;57.70
19208;BME280;9737;59.466;18.036;2023-04-27T11:18:46;102345.88;;;15.95;57.68
19208;BME280;9737;59.466;18.036;2023-04-27T11:21:15;103125.06;;;17.81;57.79
19208;BME280;9737;59.466;18.036;2023-04-27T11:23:44;103523.72;;;18.71;57.80
19208;BME280;9737;59.466;18.036;2023-04-27T11:26:13;102633.38;;;16.60;57.72
19208;BME280;9737;59.466;18.036;2023-04-27T11:28:56;102189.44;;;15.53;57.69
19208;BME280;9737;59.466;18.036;2023-04-27T11:31:25;102425.16;;;16.13;57.33
19208;BME280;9737;59.466;18.036;2023-04-27T11:33:54;102530.84;;;16.39;57.38
19208;BME280;9737;59.466;18.036;2023-04-27T11:36:22;102619.28;;;16.56;57.29
19208;BME280;9737;59.466;18.036;2023-04-27T11:38:56;102696.53;;;16.81;57.25
19208;BME280;9737;59.466;18.036;2023-04-27T11:41:32;103145.34;;;17.87;57.28
19208;BME280;9737;59.466;18.036;2023-04-27T11:44:05;103216.16;;;18.03;57.16
19208;BME280;9737;59.466;18.036;2023-04-27T11:46:34;103039.34;;;17.59;57.22
19208;BME280;9737;59.466;18.036;2023-04-27T11:49:04;103294.94;;;18.21;57.31
19208;BME280;9737;59.466;18.036;2023-04-27T11:51:35;103169.22;;;17.93;57.12
19208;BME280;9737;59.466;18.036;2023-04-27T11:54:04;102734.16;;;16.81;56.88
19208;BME280;9737;59.466;18.036;2023-04-27T11:56:36;102036.19;;;15.19;56.58
19208;BME280;9737;59.466;18.036;2023-04-27T11:59:17;101656.84;;;14.28;56.58
19208;BME280;9737;59.466;18.036;2023-04-27T12:01:45;101289.84;;;13.37;56.32
19208;BME280;9737;59.466;18.036;2023-04-27T12:04:13;100805.47;;;12.20;55.87
19208;BME280;9737;59.466;18.036;2023-04-27T12:06:42;100516.97;;;11.46;55.81
19208;BME280;9737;59.466;18.036;2023-04-27T12:09:10;100287.88;;;10.91;55.27
19208;BME280;9737;59.466;18.036;2023-04-27T12:11:38;100291.28;;;10.93;55.20
19208;BME280;9737;59.466;18.036;2023-04-27T12:14:08;100752.19;;;12.07;55.64
19208;BME280;9737;59.466;18.036;2023-04-27T12:16:35;101087.34;;;12.93;55.51
19208;BME280;9737;59.466;18.036;2023-04-27T12:19:03;101222.84;;;13.27;55.59
19208;BME280;9737;59.466;18.036;2023-04-27T12:21:32;101581.84;;;14.17;55.30
19208;BME280;9737;59.466;18.036;2023-04-27T12:24:03;101995.25;;;15.17;55.75
19208;BME280;9737;59.466;18.036;2023-04-27T12:26:31;101722.19;;;14.51;55.48
19208;BME280;9737;59.466;18.036;2023-04-27T12:28:59;101424.16;;;13.77;55.64
19208;BME280;9737;59.466;18.036;2023-04-27T12:31:28;101141.59;;;13.06;55.33
19208;BME280;9737;59.466;18.036;2023-04-27T12:33:56;100800.75;;;12.24;55.00
19208;BME280;9737;59.466;18.036;2023-04-27T12:36:24;100545.47;;;11.57;54.79
19208;BME280;9737;59.466;18.036;2023-04-27T12:38:56;100569.59;;;11.67;55.11
19208;BME280;9737;59.466;18.036;2023-04-27T12:41:24;100624.41;;;11.82;54.73
19208;BME280;9737;59.466;18.036;2023-04-27T12:43:52;100634.03;;;11.72;54.57
19208;BME280;9737;59.466;18.036;2023-04-27T12:46:20;100603.63;;;11.74;54.91
19208;BME280;9737;59.466;18.036;2023-04-27T12:48:49;100785.72;;;12.23;54.51
19208;BME280;9737;59.466;18.036;2023-04-27T12:51:17;101142.00;;;13.13;54.58
19208;BME280;9737;59.466;18.036;2023-04-27T12:53:45;101854.38;;;14.88;54.85
19208;BME280;9737;59.466;18.036;2023-04-27T12:56:12;102660.41;;;16.85;55.09
19208;BME280;9737;59.466;18.036;2023-04-27T12:58:40;103241.88;;;18.23;55.21
19208;BME280;9737;59.466;18.036;2023-04-27T13:01:08;103598.94;;;19.06;55.28
19208;BME280;9737;59.466;18.036;2023-04-27T13:03:40;102846.03;;;17.25;55.39
19208;BME280;9737;59.466;18.036;2023-04-27T13:06:10;102714.44;;;16.95;54.99
19208;BME280;9737;59.466;18.036;2023-04-27T13:08:38;102322.88;;;15.91;54.88
19208;BME280;9737;59.466;18.036;2023-04-27T13:11:06;102601.41;;;16.69;54.73
19208;BME280;9737;59.466;18.036;2023-04-27T13:13:34;103328.75;;;18.41;55.09